Amesbury, MA

3:36 AM EST on March 02, 2015 (GMT -0500)
So Hampton Rd | Change Station
CLOSE
Current Station
Personal Weather Station
Location: Amesbury, MA
Elevation: 85 ft
Nearby Weather Stations
Active Advisory: Special Statement Active Notice: Public Information Statement

Elev 85 ft 42.87 °N, 70.93 °W | Updated 14 minutes ago

Partly Cloudy
Partly Cloudy
17.1 °F
Feels Like 17 °F
N
0.0
Wind Variable Wind from WSW

Today
High -- | Low -- °F
--% Chance of Precip.
Yesterday
High -- | Low -- °F
Precip. -- in
6:18 AM 5:34 PM
Waxing Gibbous, 90% visible
Pressure 30.00 in
Visibility 9.0 miles
Clouds Scattered Clouds 7500 ft
Mostly Cloudy 11000 ft
Windchill 17 °F
Dew Point 13 °F
Humidity 84%
Rainfall 0.00 in
Snow Depth Not available.
UV 0 out of 12
Pollen .40 out of 12
Air Quality Not available.
Flu Activity Not available.
METAR KLWM 020754Z AUTO 28004KT 9SM SCT075 BKN110 M05/M06 A3000 RMK AO2 SLP159 T10501061

More Conditions Fewer Conditions

Pressure 30.00 in
Visibility 9.0 miles
Clouds Scattered Clouds 7500 ft
Mostly Cloudy 11000 ft
Windchill 17 °F
Dew Point 13 °F
Humidity 84%
Rainfall 0.00 in
Snow Depth Not available.
UV 0 out of 12
Pollen .40 out of 12
Air Quality Not available.
Flu Activity Not available.
METAR KLWM 020754Z AUTO 28004KT 9SM SCT075 BKN110 M05/M06 A3000 RMK AO2 SLP159 T10501061

More Conditions Fewer Conditions

10-Day Weather Forecast

Almanac

Astronomy

Mar. 02, 2015 Rise Set
Actual Time
Civil Twilight
Nautical Twilight
Astronomical Twilight
Moon
Length of Visible Light
Length of Day
Tomorrow will be .
, % of the Moon is Illuminated

Today's Extremes

State Highs State Lows

Community

WunderPhotos

Upload Photos

1,801,751 photos uploaded!

WunderBlogs® & News

Nearby

Air Quality

  Air Quality AQ Index Pollutant
Not available.

Snow Depth

Station Depth Elevation

Earthquake Activity

City Distance Mag. Time & Date
Minimum magnitude displayed is 2.5.

Coastal Water Temperatures

Place Temperature

Nearby Weather Stations

Special Statement
Statement as of 2:03 AM EST on March 02, 2015

... The snow has ended but with temperatures below freezing
untreated roads will remain snow covered and slippery for the
morning rush hour...

Even though the snow has come to an end... temperatures are below
freezing. Therefore... untreated roads will remain snow covered and
slippery for the morning rush hour. Motorists should drive with
extra caution if traveling early this morning.


Frank


203 am EST Mon Mar 2 2015

... The snow has ended but with temperatures below freezing
untreated roads will remain snow covered and slippery for the
morning rush hour...

Even though the snow has come to an end... temperatures are below
freezing. Therefore... untreated roads will remain snow covered and
slippery for the morning rush hour. Motorists should drive with
extra caution if traveling early this morning.


Frank